createdAt,value
2018-05-03T00:01:08.176Z,4.20
2018-05-03T00:03:35.595Z,5.28
2018-05-03T00:06:02.991Z,5.75
2018-05-03T00:08:30.405Z,5.47
2018-05-03T00:10:57.812Z,7.37
2018-05-03T00:13:25.226Z,5.45
2018-05-03T00:15:52.641Z,7.10
2018-05-03T00:18:20.139Z,11.35
2018-05-03T00:20:47.462Z,3.75
2018-05-03T00:23:14.875Z,2.97
2018-05-03T00:25:42.283Z,9.73
2018-05-03T00:28:09.694Z,9.10
2018-05-03T00:30:37.104Z,7.87
2018-05-03T00:33:04.508Z,8.52
2018-05-03T00:35:31.926Z,5.10
2018-05-03T00:37:59.329Z,6.45
2018-05-03T00:40:26.743Z,6.95
2018-05-03T00:42:54.148Z,11.35
2018-05-03T00:45:21.566Z,8.52
2018-05-03T00:47:48.972Z,6.43
2018-05-03T00:50:16.394Z,8.90
2018-05-03T00:52:43.800Z,5.50
2018-05-03T00:55:11.216Z,6.28
2018-05-03T00:57:38.628Z,5.07
2018-05-03T01:00:06.054Z,5.93
2018-05-03T01:02:33.466Z,5.50
2018-05-03T01:05:00.881Z,6.62
2018-05-03T01:07:28.288Z,6.55
2018-05-03T01:09:55.712Z,5.35
2018-05-03T01:12:23.121Z,8.63
2018-05-03T01:14:50.541Z,5.78
2018-05-03T01:17:17.940Z,6.55
2018-05-03T01:19:45.357Z,5.15
2018-05-03T01:22:12.769Z,15.00
2018-05-03T01:24:40.189Z,6.40
2018-05-03T01:27:07.621Z,7.15
2018-05-03T01:29:35.034Z,6.30
2018-05-03T01:32:02.444Z,6.15
2018-05-03T01:34:29.853Z,6.70
2018-05-03T01:36:57.260Z,6.18
2018-05-03T01:39:24.684Z,4.60
2018-05-03T01:41:52.097Z,4.75
2018-05-03T01:44:19.524Z,5.90
2018-05-03T01:46:46.916Z,4.20
2018-05-03T01:49:14.335Z,5.07
2018-05-03T01:51:41.736Z,6.95
2018-05-03T01:54:09.156Z,4.45
2018-05-03T01:56:36.573Z,18.35
2018-05-03T01:59:03.988Z,5.15
2018-05-03T02:01:31.396Z,4.87
2018-05-03T02:03:58.796Z,4.43
2018-05-03T02:06:26.215Z,5.72
2018-05-03T02:08:53.616Z,9.43
2018-05-03T02:11:21.027Z,6.95
2018-05-03T02:13:48.431Z,9.43
2018-05-03T02:16:15.844Z,7.10
2018-05-03T02:18:43.253Z,6.35
2018-05-03T02:21:10.664Z,8.48
2018-05-03T02:23:38.069Z,5.20
2018-05-03T02:26:05.480Z,4.25
2018-05-03T02:28:32.883Z,4.05
2018-05-03T02:31:00.307Z,4.95
2018-05-03T02:33:27.706Z,4.30
2018-05-03T02:35:55.116Z,6.50
2018-05-03T02:38:22.554Z,7.30
2018-05-03T02:40:49.945Z,8.57
2018-05-03T02:43:17.349Z,6.80
2018-05-03T02:45:44.756Z,5.22
2018-05-03T02:48:12.160Z,4.97
2018-05-03T02:50:39.581Z,9.55
2018-05-03T02:53:06.988Z,5.10
2018-05-03T02:55:34.408Z,3.95
2018-05-03T02:58:18.591Z,7.30
2018-05-03T03:01:03.640Z,14.50
2018-05-03T03:03:48.526Z,9.15
2018-05-03T03:06:33.621Z,5.97
2018-05-03T03:09:18.608Z,3.87
2018-05-03T03:11:57.629Z,6.87
2018-05-03T03:14:42.680Z,5.87
2018-05-03T03:17:27.579Z,4.53
2018-05-03T03:20:12.660Z,8.48
2018-05-03T03:22:57.635Z,7.70
2018-05-03T03:28:54.877Z,5.25
2018-05-03T03:31:39.925Z,6.28
2018-05-03T03:34:17.961Z,5.22
2018-05-03T03:40:01.836Z,4.20
2018-05-03T03:45:44.183Z,4.60
2018-05-03T03:48:11.589Z,4.32
2018-05-03T03:50:38.998Z,7.43
2018-05-03T03:53:06.503Z,6.40
2018-05-03T03:55:33.825Z,6.80
2018-05-03T03:58:01.238Z,9.05
2018-05-03T04:00:28.655Z,5.10
2018-05-03T04:02:56.064Z,4.47
2018-05-03T04:05:23.481Z,10.50
2018-05-03T04:07:50.895Z,5.68
2018-05-03T04:10:18.300Z,8.48
2018-05-03T04:12:45.716Z,8.52
2018-05-03T04:15:13.120Z,9.38
2018-05-03T04:17:52.325Z,5.55
2018-05-03T04:20:40.224Z,4.65
2018-05-03T04:23:19.568Z,6.25
2018-05-03T04:25:58.737Z,5.90
2018-05-03T04:28:26.144Z,6.28
2018-05-03T04:30:53.552Z,7.10
2018-05-03T04:33:20.994Z,13.68
2018-05-03T04:35:48.409Z,11.20
2018-05-03T04:38:15.812Z,10.07
2018-05-03T04:40:43.232Z,7.18
2018-05-03T04:43:10.642Z,18.42
2018-05-03T04:45:38.060Z,10.50
2018-05-03T04:48:05.488Z,10.85
2018-05-03T04:50:32.901Z,6.97
2018-05-03T04:53:00.305Z,8.48
2018-05-03T04:55:27.724Z,10.30
2018-05-03T04:57:55.136Z,11.45
2018-05-03T05:00:22.577Z,15.38
2018-05-03T05:02:49.984Z,9.60
2018-05-03T05:05:17.390Z,8.20
2018-05-03T05:07:44.802Z,9.25
2018-05-03T05:10:12.212Z,10.32
2018-05-03T05:12:39.624Z,9.55
2018-05-03T05:15:07.041Z,7.03
2018-05-03T05:17:34.448Z,8.18
2018-05-03T05:20:01.868Z,5.95
2018-05-03T05:22:29.272Z,3.50
2018-05-03T05:24:56.688Z,4.35
2018-05-03T05:27:24.088Z,5.15
2018-05-03T05:29:51.496Z,2.03
2018-05-03T05:32:18.938Z,6.28
2018-05-03T05:34:46.388Z,5.55
2018-05-03T05:37:13.740Z,7.57
2018-05-03T05:39:41.173Z,15.80
2018-05-03T05:42:08.596Z,4.43
2018-05-03T05:44:36.008Z,2.35
2018-05-03T05:47:03.427Z,2.85
2018-05-03T05:49:30.832Z,6.40
2018-05-03T05:51:58.249Z,3.35
2018-05-03T05:54:25.648Z,3.12
2018-05-03T05:56:53.061Z,9.77
2018-05-03T05:59:20.477Z,2.35
2018-05-03T06:01:47.899Z,3.55
2018-05-03T06:04:15.313Z,5.05
2018-05-03T06:06:42.724Z,5.35
2018-05-03T06:09:10.138Z,2.83
2018-05-03T06:11:37.548Z,2.87
2018-05-03T06:14:04.955Z,1.40
2018-05-03T06:16:32.375Z,3.90
2018-05-03T06:18:59.785Z,2.22
2018-05-03T06:21:27.201Z,1.70
2018-05-03T06:23:54.607Z,2.42
2018-05-03T06:26:22.024Z,5.32
2018-05-03T06:28:49.434Z,14.18
2018-05-03T06:31:16.869Z,6.97
2018-05-03T06:33:44.276Z,4.80
2018-05-03T06:36:11.676Z,2.03
2018-05-03T06:38:39.094Z,7.45
2018-05-03T06:41:06.500Z,4.35
2018-05-03T06:43:33.912Z,2.87
2018-05-03T06:46:01.322Z,6.45
2018-05-03T06:48:28.738Z,5.00
2018-05-03T06:50:56.137Z,5.85
2018-05-03T06:53:23.548Z,3.65
2018-05-03T06:55:50.965Z,2.25
2018-05-03T06:58:18.385Z,12.25
2018-05-03T07:00:45.787Z,23.75
2018-05-03T07:03:13.208Z,4.32
2018-05-03T07:05:40.612Z,13.80
2018-05-03T07:08:08.024Z,2.55
2018-05-03T07:10:35.437Z,2.17
2018-05-03T07:13:02.865Z,3.62
2018-05-03T07:15:30.268Z,14.10
2018-05-03T07:17:57.694Z,4.43
2018-05-03T07:20:25.096Z,1.92
2018-05-03T07:22:52.541Z,2.45
2018-05-03T07:25:19.952Z,3.17
2018-05-03T07:27:47.366Z,4.57
2018-05-03T07:30:14.768Z,9.32
2018-05-03T07:32:42.180Z,2.10
2018-05-03T07:35:09.589Z,8.10
2018-05-03T07:37:37.005Z,8.82
2018-05-03T07:40:04.413Z,9.15
2018-05-03T07:42:31.824Z,4.25
2018-05-03T07:44:59.236Z,3.10
2018-05-03T07:47:26.670Z,14.18
2018-05-03T07:49:54.074Z,24.05
2018-05-03T07:52:21.491Z,3.75
2018-05-03T07:54:48.892Z,3.12
2018-05-03T07:57:16.309Z,2.80
2018-05-03T07:59:43.727Z,17.40
2018-05-03T08:02:11.150Z,3.45
2018-05-03T08:04:38.540Z,3.60
2018-05-03T08:07:05.952Z,10.07
2018-05-03T08:09:33.368Z,4.97
2018-05-03T08:12:00.773Z,9.55
2018-05-03T08:14:28.189Z,7.50
2018-05-03T08:16:55.598Z,3.60
2018-05-03T08:19:23.028Z,3.35
2018-05-03T08:21:50.448Z,4.62
2018-05-03T08:24:17.882Z,4.90
2018-05-03T08:26:45.280Z,6.37
2018-05-03T08:29:12.700Z,5.90
2018-05-03T08:31:40.158Z,9.50
2018-05-03T08:34:07.541Z,6.12
2018-05-03T08:36:35.006Z,14.10
2018-05-03T08:39:02.450Z,6.62
2018-05-03T08:41:29.903Z,5.18
2018-05-03T08:43:57.332Z,6.47
2018-05-03T08:46:24.732Z,7.60
2018-05-03T08:48:52.188Z,5.70
2018-05-03T08:51:19.622Z,20.00
2018-05-03T08:53:47.041Z,7.00
2018-05-03T08:56:14.445Z,7.72
2018-05-03T08:58:41.880Z,6.62
2018-05-03T09:01:09.307Z,11.23
2018-05-03T09:03:36.741Z,14.13
2018-05-03T09:06:04.153Z,12.15
2018-05-03T09:08:31.572Z,7.32
2018-05-03T09:10:58.980Z,8.82
2018-05-03T09:13:26.402Z,11.95
2018-05-03T09:15:53.813Z,12.00
2018-05-03T09:18:21.238Z,13.38
2018-05-03T09:20:48.649Z,9.27
2018-05-03T09:23:16.074Z,15.68
2018-05-03T09:25:43.489Z,13.23
2018-05-03T09:28:10.904Z,8.90
2018-05-03T09:30:38.312Z,13.57
2018-05-03T09:33:05.744Z,11.63
2018-05-03T09:35:33.162Z,21.10
2018-05-03T09:38:00.576Z,12.18
2018-05-03T09:40:28.002Z,17.70
2018-05-03T09:42:55.416Z,14.07
2018-05-03T09:45:22.836Z,11.93
2018-05-03T09:47:50.259Z,11.88
2018-05-03T09:50:17.707Z,18.23
2018-05-03T09:52:45.149Z,11.55
2018-05-03T09:55:12.561Z,13.00
2018-05-03T09:57:39.978Z,16.48
2018-05-03T10:00:07.400Z,13.80
2018-05-03T10:02:34.817Z,12.98
2018-05-03T10:05:02.255Z,16.15
2018-05-03T10:07:29.672Z,16.95
2018-05-03T10:09:57.089Z,22.90
2018-05-03T10:12:24.504Z,19.25
2018-05-03T10:14:51.936Z,19.50
2018-05-03T10:17:19.364Z,26.35
2018-05-03T10:19:46.793Z,19.98
2018-05-03T10:22:14.208Z,21.15
2018-05-03T10:24:41.632Z,18.70
2018-05-03T10:27:09.055Z,18.00
2018-05-03T10:29:36.476Z,21.55
2018-05-03T10:32:03.892Z,20.70
2018-05-03T10:34:31.328Z,20.40
2018-05-03T10:36:58.744Z,15.00
2018-05-03T10:39:26.165Z,27.50
2018-05-03T10:41:53.621Z,27.45
2018-05-03T10:44:21.005Z,20.77
2018-05-03T10:46:48.419Z,23.38
2018-05-03T10:49:15.841Z,21.92
2018-05-03T10:51:43.256Z,18.05
2018-05-03T10:54:10.676Z,13.85
2018-05-03T10:56:38.104Z,16.55
2018-05-03T10:59:05.524Z,19.37
2018-05-03T11:01:32.940Z,10.27
2018-05-03T11:04:00.356Z,16.67
2018-05-03T11:06:27.765Z,14.20
2018-05-03T11:08:55.205Z,17.05
2018-05-03T11:11:22.620Z,17.83
2018-05-03T11:13:50.037Z,14.57
2018-05-03T11:16:17.460Z,20.30
2018-05-03T11:18:44.866Z,15.18
2018-05-03T11:21:12.292Z,21.62
2018-05-03T11:23:39.703Z,8.80
2018-05-03T11:26:07.131Z,12.73
2018-05-03T11:28:34.544Z,15.48
2018-05-03T11:31:01.968Z,12.98
2018-05-03T11:33:29.377Z,9.75
2018-05-03T11:35:56.793Z,10.35
2018-05-03T11:38:24.210Z,10.05
2018-05-03T11:40:51.629Z,13.40
2018-05-03T11:43:19.037Z,15.48
2018-05-03T11:45:46.468Z,11.45
2018-05-03T11:48:13.880Z,14.48
2018-05-03T11:50:41.305Z,13.25
2018-05-03T11:53:08.729Z,15.18
2018-05-03T11:55:36.225Z,23.10
2018-05-03T11:58:03.569Z,13.35
2018-05-03T12:00:30.988Z,10.05
2018-05-03T12:02:58.409Z,13.30
2018-05-03T12:05:25.826Z,14.50
2018-05-03T12:07:53.239Z,13.57
2018-05-03T12:10:20.665Z,15.93
2018-05-03T12:12:48.072Z,11.68
2018-05-03T12:15:15.492Z,25.77
2018-05-03T12:17:42.912Z,16.12
2018-05-03T12:20:10.362Z,14.75
2018-05-03T12:22:37.781Z,16.60
2018-05-03T12:25:05.201Z,15.00
2018-05-03T12:27:32.613Z,16.42
2018-05-03T12:30:00.038Z,19.77
2018-05-03T12:32:27.452Z,15.05
2018-05-03T12:34:54.903Z,15.10
2018-05-03T12:37:22.297Z,17.98
2018-05-03T12:39:49.719Z,17.12
2018-05-03T12:42:17.125Z,10.50
2018-05-03T12:44:44.564Z,10.60
2018-05-03T12:47:11.980Z,15.63
2018-05-03T12:49:39.388Z,16.15
2018-05-03T12:52:06.809Z,13.38
2018-05-03T12:54:34.228Z,12.43
2018-05-03T12:57:01.685Z,15.63
2018-05-03T12:59:29.129Z,14.25
2018-05-03T13:01:56.545Z,14.52
2018-05-03T13:04:23.956Z,11.25
2018-05-03T13:06:51.388Z,13.90
2018-05-03T13:09:18.796Z,13.62
2018-05-03T13:11:46.217Z,12.30
2018-05-03T13:14:13.725Z,15.00
2018-05-03T13:16:41.063Z,12.65
2018-05-03T13:19:08.477Z,14.15
2018-05-03T13:21:35.904Z,10.45
2018-05-03T13:24:03.338Z,15.68
2018-05-03T13:26:30.749Z,17.80
2018-05-03T13:28:58.167Z,14.00
2018-05-03T13:31:25.588Z,11.63
2018-05-03T13:33:53.006Z,14.73
2018-05-03T13:36:20.463Z,22.85
2018-05-03T13:38:47.880Z,10.63
2018-05-03T13:41:15.295Z,9.57
2018-05-03T13:43:42.714Z,16.23
2018-05-03T13:46:10.145Z,16.62
2018-05-03T13:48:37.556Z,23.52
2018-05-03T13:51:04.984Z,11.55
2018-05-03T13:53:32.394Z,17.15
2018-05-03T13:55:59.821Z,19.05
2018-05-03T13:58:27.237Z,13.60
2018-05-03T14:00:54.730Z,19.83
2018-05-03T14:03:22.073Z,15.95
2018-05-03T14:05:49.492Z,16.35
2018-05-03T14:08:16.911Z,15.05
2018-05-03T14:10:44.331Z,19.17
2018-05-03T14:13:11.745Z,26.23
2018-05-03T14:15:39.165Z,26.77
2018-05-03T14:18:06.577Z,18.50
2018-05-03T14:20:33.995Z,23.83
2018-05-03T14:23:01.408Z,16.85
2018-05-03T14:25:28.850Z,16.75
2018-05-03T14:27:56.283Z,16.90
2018-05-03T14:30:23.676Z,16.10
2018-05-03T14:32:51.096Z,18.98
2018-05-03T14:35:18.505Z,15.27
2018-05-03T14:37:45.929Z,15.90
2018-05-03T14:40:13.345Z,11.88
2018-05-03T14:42:40.769Z,19.58
2018-05-03T14:45:08.206Z,17.87
2018-05-03T14:47:35.637Z,16.45
2018-05-03T14:50:03.047Z,18.70
2018-05-03T14:52:30.471Z,12.88
2018-05-03T14:54:57.889Z,10.70
2018-05-03T14:57:25.300Z,5.40
2018-05-03T14:59:52.720Z,7.65
2018-05-03T15:02:20.137Z,10.27
2018-05-03T15:04:47.549Z,13.10
2018-05-03T15:07:14.984Z,11.12
2018-05-03T15:09:42.388Z,4.70
2018-05-03T15:12:09.813Z,11.52
2018-05-03T15:14:37.218Z,8.13
2018-05-03T15:17:04.632Z,15.70
2018-05-03T15:19:32.039Z,7.25
2018-05-03T15:21:59.448Z,8.73
2018-05-03T15:24:26.865Z,13.48
2018-05-03T15:26:54.280Z,9.65
2018-05-03T15:29:21.693Z,11.15
2018-05-03T15:31:49.125Z,16.67
2018-05-03T15:34:16.532Z,18.30
2018-05-03T15:36:43.953Z,13.85
2018-05-03T15:39:11.372Z,13.50
2018-05-03T15:41:38.788Z,10.93
2018-05-03T15:44:06.198Z,11.40
2018-05-03T15:46:33.612Z,4.90
2018-05-03T15:49:01.021Z,6.82
2018-05-03T15:51:28.463Z,9.18
2018-05-03T15:53:55.893Z,8.68
2018-05-03T15:56:23.296Z,9.50
2018-05-03T15:58:50.704Z,8.50
2018-05-03T16:01:18.142Z,7.18
2018-05-03T16:03:45.539Z,7.22
2018-05-03T16:06:12.945Z,8.68
2018-05-03T16:08:40.367Z,9.77
2018-05-03T16:11:07.763Z,7.87
2018-05-03T16:13:35.183Z,8.40
2018-05-03T16:16:02.585Z,5.60
2018-05-03T16:18:30.005Z,10.50
2018-05-03T16:20:57.404Z,5.47
2018-05-03T16:23:24.812Z,6.75
2018-05-03T16:25:52.216Z,6.03
2018-05-03T16:28:19.628Z,4.75
2018-05-03T16:30:47.057Z,5.47
2018-05-03T16:33:14.473Z,24.27
2018-05-03T16:35:41.876Z,9.05
2018-05-03T16:38:09.319Z,5.20
2018-05-03T16:40:36.728Z,5.75
2018-05-03T16:43:04.140Z,6.62
2018-05-03T16:45:31.561Z,6.03
2018-05-03T16:47:58.963Z,6.07
2018-05-03T16:50:26.380Z,6.70
2018-05-03T16:52:53.805Z,5.20
2018-05-03T16:55:21.209Z,5.37
2018-05-03T16:57:48.623Z,6.68
2018-05-03T17:00:16.028Z,6.15
2018-05-03T17:02:43.521Z,5.15
2018-05-03T17:05:10.929Z,9.00
2018-05-03T17:07:38.349Z,5.50
2018-05-03T17:10:05.753Z,11.00
2018-05-03T17:12:33.173Z,4.37
2018-05-03T17:15:00.576Z,5.82
2018-05-03T17:17:28.000Z,4.93
2018-05-03T17:19:55.405Z,3.85
2018-05-03T17:22:22.821Z,4.45
2018-05-03T17:24:50.241Z,8.02
2018-05-03T17:27:17.644Z,4.47
2018-05-03T17:29:45.057Z,7.40
2018-05-03T17:32:12.480Z,10.73
2018-05-03T17:34:39.884Z,3.70
2018-05-03T17:37:07.289Z,6.97
2018-05-03T17:39:34.707Z,4.53
2018-05-03T17:42:02.109Z,7.50
2018-05-03T17:44:29.605Z,3.20
2018-05-03T17:46:56.932Z,5.18
2018-05-03T17:49:24.348Z,4.10
2018-05-03T17:51:51.811Z,13.62
2018-05-03T17:54:19.172Z,5.82
2018-05-03T17:56:46.585Z,4.75
2018-05-03T17:59:14.002Z,3.92
2018-05-03T18:01:41.407Z,4.55
2018-05-03T18:04:08.833Z,4.60
2018-05-03T18:06:36.265Z,5.18
2018-05-03T18:09:03.674Z,4.40
2018-05-03T18:11:31.084Z,4.32
2018-05-03T18:13:58.500Z,5.10
2018-05-03T18:16:25.942Z,4.65
2018-05-03T18:18:53.332Z,3.83
2018-05-03T18:21:20.738Z,3.53
2018-05-03T18:23:48.154Z,3.60
2018-05-03T18:26:15.583Z,8.68
2018-05-03T18:28:42.979Z,5.25
2018-05-03T18:31:10.398Z,3.53
2018-05-03T18:33:37.821Z,6.00
2018-05-03T18:36:05.224Z,1.95
2018-05-03T18:38:32.652Z,2.35
2018-05-03T18:41:00.053Z,2.55
2018-05-03T18:43:27.472Z,3.40
2018-05-03T18:45:54.873Z,2.83
2018-05-03T18:48:22.280Z,4.53
2018-05-03T18:50:49.684Z,3.60
2018-05-03T18:53:17.099Z,3.33
2018-05-03T18:55:44.507Z,3.08
2018-05-03T18:58:11.924Z,9.30
2018-05-03T19:00:39.324Z,3.62
2018-05-03T19:03:06.736Z,3.17
2018-05-03T19:05:34.144Z,3.17
2018-05-03T19:08:01.561Z,3.65
2018-05-03T19:10:28.972Z,4.10
2018-05-03T19:12:56.415Z,8.50
2018-05-03T19:15:23.820Z,3.95
2018-05-03T19:17:51.231Z,3.12
2018-05-03T19:20:18.636Z,1.90
2018-05-03T19:22:46.046Z,3.03
2018-05-03T19:25:13.467Z,3.08
2018-05-03T19:27:40.901Z,4.47
2018-05-03T19:30:08.308Z,3.80
2018-05-03T19:32:35.768Z,4.00
2018-05-03T19:35:03.195Z,2.70
2018-05-03T19:37:30.587Z,2.25
2018-05-03T19:39:58.004Z,2.80
2018-05-03T19:42:25.409Z,2.58
2018-05-03T19:44:52.828Z,2.47
2018-05-03T19:47:20.236Z,2.10
2018-05-03T19:49:47.707Z,5.18
2018-05-03T19:52:15.052Z,2.50
2018-05-03T19:54:42.464Z,4.15
2018-05-03T19:57:09.873Z,3.35
2018-05-03T19:59:37.293Z,2.45
2018-05-03T20:02:04.695Z,2.03
2018-05-03T20:04:32.104Z,3.67
2018-05-03T20:06:59.521Z,1.80
2018-05-03T20:09:26.931Z,2.22
2018-05-03T20:11:54.342Z,2.17
2018-05-03T20:14:21.757Z,2.00
2018-05-03T20:16:49.161Z,1.70
2018-05-03T20:19:16.584Z,3.03
2018-05-03T20:21:43.995Z,1.55
2018-05-03T20:24:11.412Z,2.25
2018-05-03T20:26:38.814Z,5.57
2018-05-03T20:29:06.234Z,3.20
2018-05-03T20:31:33.632Z,3.28
2018-05-03T20:34:01.052Z,4.53
2018-05-03T20:36:28.457Z,2.25
2018-05-03T20:38:55.888Z,5.85
2018-05-03T20:41:23.293Z,1.70
2018-05-03T20:43:50.703Z,9.73
2018-05-03T20:46:18.108Z,1.73
2018-05-03T20:48:45.524Z,3.10
2018-05-03T20:51:12.933Z,3.00
2018-05-03T20:53:40.344Z,2.30
2018-05-03T20:56:07.756Z,2.70
2018-05-03T20:58:35.160Z,3.55
2018-05-03T21:01:02.586Z,2.65
2018-05-03T21:03:29.980Z,4.25
2018-05-03T21:05:57.394Z,2.00
2018-05-03T21:08:24.797Z,2.58
2018-05-03T21:10:52.213Z,2.15
2018-05-03T21:13:19.624Z,3.58
2018-05-03T21:15:47.070Z,11.32
2018-05-03T21:18:14.468Z,4.37
2018-05-03T21:20:41.888Z,1.40
2018-05-03T21:23:09.309Z,2.75
2018-05-03T21:25:36.733Z,2.80
2018-05-03T21:28:04.146Z,3.83
2018-05-03T21:30:31.556Z,2.72
2018-05-03T21:32:58.956Z,5.35
2018-05-03T21:35:26.379Z,2.50
2018-05-03T21:37:53.797Z,6.87
2018-05-03T21:40:21.195Z,3.37
2018-05-03T21:42:48.605Z,2.83
2018-05-03T21:45:16.018Z,2.95
2018-05-03T21:47:43.440Z,2.12
2018-05-03T21:50:10.848Z,1.92
2018-05-03T21:52:38.256Z,1.80
2018-05-03T21:55:05.668Z,4.62
2018-05-03T21:57:33.076Z,7.47
2018-05-03T22:00:00.493Z,3.55
2018-05-03T22:02:27.902Z,2.37
2018-05-03T22:04:55.308Z,3.70
2018-05-03T22:07:22.722Z,5.32
2018-05-03T22:09:50.141Z,5.95
2018-05-03T22:12:17.549Z,1.67
2018-05-03T22:14:44.959Z,1.87
2018-05-03T22:17:12.364Z,2.40
2018-05-03T22:19:39.775Z,3.97
2018-05-03T22:22:07.185Z,6.00
2018-05-03T22:24:34.606Z,4.10
2018-05-03T22:27:02.007Z,1.55
2018-05-03T22:29:29.416Z,2.87
2018-05-03T22:31:56.832Z,3.28
2018-05-03T22:34:24.237Z,4.57
2018-05-03T22:36:51.657Z,3.05
2018-05-03T22:39:19.069Z,1.62
2018-05-03T22:44:20.400Z,4.22
2018-05-03T22:46:47.817Z,5.43
2018-05-03T22:49:15.225Z,3.80
2018-05-03T22:51:42.642Z,2.40
2018-05-03T22:54:10.056Z,2.83
2018-05-03T22:56:37.464Z,3.05
2018-05-03T22:59:04.869Z,2.85
2018-05-03T23:01:32.277Z,2.45
2018-05-03T23:03:59.688Z,1.75
2018-05-03T23:06:27.100Z,4.00
2018-05-03T23:08:54.500Z,5.53
2018-05-03T23:11:21.913Z,5.72
2018-05-03T23:13:49.321Z,3.78
2018-05-03T23:16:16.732Z,2.90
2018-05-03T23:18:44.136Z,9.57
2018-05-03T23:21:11.549Z,6.37
2018-05-03T23:23:38.954Z,1.85
2018-05-03T23:26:06.365Z,1.62
2018-05-03T23:28:33.768Z,2.10
2018-05-03T23:31:01.184Z,2.20
2018-05-03T23:33:28.588Z,2.87
2018-05-03T23:35:56.006Z,2.67
2018-05-03T23:38:23.413Z,3.87
2018-05-03T23:40:50.829Z,3.78
2018-05-03T23:43:18.221Z,7.50
2018-05-03T23:45:45.632Z,2.58
2018-05-03T23:48:13.032Z,1.73
2018-05-03T23:50:40.469Z,3.15
2018-05-03T23:53:07.865Z,2.53
2018-05-03T23:55:35.275Z,4.18
2018-05-03T23:58:02.681Z,1.67
